Terminal Aerodrome Forecast
Issued by NWS Central Illinois

Home | Current Version | Previous Version | Text Only | Print | Product List | Glossary On
Versions: 1 2 3 4 5 6 7 8 9 10 11 12 13 14 15 16 17 18 19 20 21 22 23 24
000
FTUS43 KILX 221027 AAC
TAFPIA
TAF AMD
KPIA 221027Z 2210/2306 04006KT 1/4SM FG OVC002
      TEMPO 2210/2212 1SM BR
     FM221600 01009KT P6SM BKN040
     FM230000 35010KT P6SM BKN030=

USA.gov is the U.S. government's official web portal to all federal, state and local government web resources and services.